Saint John, New Brunswick

7:51 PM ADT on August 22, 2014 (GMT -0300)
Saint John | Change Station
CLOSE
Current Station
Airport
Location: Saint John,
Elevation: 354 ft
Nearby Weather Stations

Elev 354 ft 45.32 °N, 65.89 °W | Updated 51 minutes ago

Mostly Cloudy
Mostly Cloudy
66 °F
Feels Like 66 °F
N
6
Wind Variable Wind from NE

Tomorrow is forecast to be nearly the same temperature as today.

Today
High -- | Low -- °F
--% Chance of Precip.
Yesterday
High -- | Low -- °F
Precip. -- in
6:32 AM 8:18 PM
Waning Crescent, 6% visible
Pressure 30.15 in
Visibility 15.0 miles
Clouds Few 2000 ft
Scattered Clouds 5500 ft
Mostly Cloudy 7500 ft
Dew Point 57 °F
Humidity 73%
Rainfall 0.00 in
Snow Depth Not available.
UV 0 out of 12
Pollen Not available.
Air Quality Not available.
Flu Activity Not available.
METAR CYSJ 222200Z 04005KT 15SM FEW020 SCT055 BKN075 19/14 A3014 RMK CU1SC3AC2 SLP208 DENSITY ALT 600FT

More Conditions Fewer Conditions

Pressure 30.15 in
Visibility 15.0 miles
Clouds Few 2000 ft
Scattered Clouds 5500 ft
Mostly Cloudy 7500 ft
Dew Point 57 °F
Humidity 73%
Rainfall 0.00 in
Snow Depth Not available.
UV 0 out of 12
Pollen Not available.
Air Quality Not available.
Flu Activity Not available.
METAR CYSJ 222200Z 04005KT 15SM FEW020 SCT055 BKN075 19/14 A3014 RMK CU1SC3AC2 SLP208 DENSITY ALT 600FT

More Conditions Fewer Conditions

10-Day Weather Forecast

Almanac

Astronomy

Aug. 22, 2014 Rise Set
Actual Time 6:32 AM ADT 8:18 PM ADT
Civil Twilight 6:01 AM ADT 8:50 PM ADT
Nautical Twilight 5:23 AM ADT 9:28 PM ADT
Astronomical Twilight 4:41 AM ADT 10:09 PM ADT
Moon 3:48 AM ADT 6:27 PM ADT
Length of Visible Light 14h 48m
Length of Day
13h 46m
Tomorrow will be 2m 57s shorter.
Waning Crescent, 6% of the Moon is Illuminated
Today
Waning Crescent
Aug 25
New
Sep 2
First Quarter
Sep 8
Full
Sep 15
Last Quarter

Today's Extremes

Country Highs Country Lows

Community

WunderPhotos

Upload Photos

1,746,278 photos uploaded!

WunderBlogs® & News

By Dr. Jeff Masters
Director of Meteorology, Weather Underground
By Kari Strenfel
Meteorologist, Weather Underground
By Christopher C. Burt
Weather Historian, Weather Underground
August 22, 2014
August 22, 2014
August 22, 2014

Nearby

Snow Depth

Not available.

Earthquake Activity

City Distance Mag. Time & Date
No recent earthquake activity has been reported nearby.
Minimum magnitude displayed is 2.5.

Coastal Water Temperatures

Place Temperature
No Stations Reporting

Nearby Weather Stations